الصفحة الرئيسية
METAR-TAF:

METAR-TAF

مطار :

Tanegashima, اليابان

دائرة عرض: 30-33N, خط طول: 130-57E, ارتفاع: 92 متر

مراقبة الطقس الحالي

تاريخ ووقت الإصدار 57 دقيقة قبل الساعة 02:23UTC
ريح 5 عقدة من الجنوب الغربي, الاتجاه يتراوح بين الجنوب و الغرب
درجة الحرارة 24°درجة مئوية
الرطوبة 100%
ضغط 1010 hPa
الرؤية: 5000 متر
غيوم قليلة على ارتفاع 200 قدم
غيوم متفرقة على ارتفاع 500 قدم
غيوم مفككة على ارتفاع 700 قدم
زخات من المطر, غشاء

METAR: RJFG 170223Z 22005KT 170V280 5000 SHRA BR FEW002 SCT005 BKN007 24/24 Q1010 RMK 1ST002 3ST005 5ST007 A2984

زمن: 12:20 (03:20 UTC)


TAF: مفقودة

أرصاد الطقس والتوقعات من أكثر من 4000 مطار (تقارير الطقس للمطار METAR والتنبؤ بالطقس بالمطارTAF).

المحطات المتاحة هي النقط الصفراء والحمراء على الخريطة.

حرك المؤشر فوق النقطة لمعرفة اسم المحطة.

ثم انقر لمعرفة أرصاد وتوقعات الطقس.

لتغيير الخارطة: اضغط على الأزرار الخضراء مع رمز الصليب الأسود للتكبير. على الزر الأخضر مع شرطة للتصغير، أو على الأسهم الخضراء للخرائط المجاورة.


METAR-TAF: